createdAt,value
2022-08-25T00:00:29.336Z,6.43
2022-08-25T00:03:07.490Z,6.47
2022-08-25T00:05:36.174Z,5.80
2022-08-25T00:08:10.494Z,5.82
2022-08-25T00:10:46.006Z,6.60
2022-08-25T00:13:35.229Z,6.75
2022-08-25T00:16:07.675Z,6.75
2022-08-25T00:18:38.070Z,7.13
2022-08-25T00:21:09.561Z,6.90
2022-08-25T00:23:37.785Z,6.33
2022-08-25T00:26:07.057Z,6.75
2022-08-25T00:31:38.278Z,6.65
2022-08-25T00:34:18.403Z,6.90
2022-08-25T00:36:57.809Z,7.30
2022-08-25T00:39:38.218Z,7.35
2022-08-25T00:42:16.303Z,7.05
2022-08-25T00:44:49.203Z,6.70
2022-08-25T00:50:11.976Z,7.37
2022-08-25T00:52:47.510Z,6.50
2022-08-25T00:55:28.013Z,6.93
2022-08-25T00:58:05.054Z,7.10
2022-08-25T01:00:43.215Z,7.57
2022-08-25T01:03:32.892Z,7.03
2022-08-25T01:06:20.640Z,6.43
2022-08-25T01:08:52.105Z,7.05
2022-08-25T01:11:29.196Z,7.03
2022-08-25T01:14:01.952Z,7.32
2022-08-25T01:16:32.404Z,6.67
2022-08-25T01:19:15.384Z,7.38
2022-08-25T01:21:57.883Z,7.25
2022-08-25T01:27:28.356Z,6.88
2022-08-25T01:30:11.618Z,6.33
2022-08-25T01:32:39.473Z,6.53
2022-08-25T01:35:12.981Z,7.32
2022-08-25T01:37:53.922Z,6.85
2022-08-25T01:40:42.901Z,7.00
2022-08-25T01:43:18.649Z,6.80
2022-08-25T01:45:49.686Z,7.25
2022-08-25T01:48:22.084Z,6.88
2022-08-25T01:50:50.002Z,6.20
2022-08-25T01:53:27.036Z,7.22
2022-08-25T01:56:15.136Z,6.60
2022-08-25T01:59:04.253Z,6.40
2022-08-25T02:01:36.437Z,6.82
2022-08-25T02:07:06.019Z,7.32
2022-08-25T02:09:45.780Z,6.53
2022-08-25T02:12:14.382Z,6.57
2022-08-25T02:14:44.903Z,7.10
2022-08-25T02:17:44.831Z,6.65
2022-08-25T02:20:28.552Z,7.20
2022-08-25T02:22:57.634Z,7.47
2022-08-25T02:25:28.569Z,6.80
2022-08-25T02:28:08.978Z,7.32
2022-08-25T02:30:51.114Z,7.65
2022-08-25T02:33:24.254Z,7.85
2022-08-25T02:36:06.781Z,7.73
2022-08-25T02:38:35.988Z,7.15
2022-08-25T02:41:25.170Z,7.57
2022-08-25T02:44:06.432Z,7.50
2022-08-25T02:46:34.282Z,8.32
2022-08-25T02:49:28.357Z,7.37
2022-08-25T02:55:08.239Z,7.57
2022-08-25T02:57:53.681Z,8.18
2022-08-25T03:00:31.365Z,8.02
2022-08-25T03:03:39.322Z,7.67
2022-08-25T03:12:07.396Z,7.05
2022-08-25T03:14:48.731Z,8.40
2022-08-25T03:17:45.650Z,7.87
2022-08-25T03:23:57.300Z,8.88
2022-08-25T03:26:50.322Z,8.18
2022-08-25T03:29:30.712Z,7.70
2022-08-25T03:32:04.458Z,7.67
2022-08-25T03:34:47.964Z,8.95
2022-08-25T03:42:57.617Z,8.02
2022-08-25T03:48:16.082Z,8.70
2022-08-25T03:51:00.431Z,8.43
2022-08-25T03:53:28.722Z,7.97
2022-08-25T03:55:57.757Z,8.40
2022-08-25T03:58:25.736Z,7.43
2022-08-25T04:01:08.173Z,8.30
2022-08-25T04:03:45.338Z,8.13
2022-08-25T04:06:34.992Z,8.15
2022-08-25T04:09:04.002Z,7.57
2022-08-25T04:11:33.281Z,7.90
2022-08-25T04:14:02.947Z,8.10
2022-08-25T04:16:36.310Z,8.57
2022-08-25T04:19:08.872Z,7.78
2022-08-25T04:21:41.884Z,8.68
2022-08-25T04:24:11.822Z,7.23
2022-08-25T04:26:45.740Z,8.30
2022-08-25T04:29:17.686Z,8.25
2022-08-25T04:31:50.819Z,8.10
2022-08-25T04:34:29.432Z,7.68
2022-08-25T04:36:58.532Z,7.73
2022-08-25T04:39:27.229Z,8.20
2022-08-25T04:41:54.843Z,8.43
2022-08-25T04:44:22.876Z,7.78
2022-08-25T04:46:51.777Z,8.38
2022-08-25T04:49:29.274Z,7.23
2022-08-25T04:51:58.764Z,7.93
2022-08-25T04:54:29.891Z,7.82
2022-08-25T04:57:05.223Z,8.43
2022-08-25T04:59:36.479Z,8.15
2022-08-25T05:02:05.859Z,8.13
2022-08-25T05:04:37.963Z,8.40
2022-08-25T06:03:42.408Z,7.17
2022-08-25T06:06:10.805Z,7.07
2022-08-25T08:38:22.177Z,5.07
2022-08-25T08:41:40.191Z,4.65
2022-08-25T08:44:42.074Z,5.07
2022-08-25T08:47:27.438Z,4.03
2022-08-25T08:50:33.177Z,5.00
2022-08-25T08:53:08.283Z,4.85
2022-08-25T08:55:52.895Z,5.28
2022-08-25T08:59:00.586Z,4.60
2022-08-25T09:01:53.300Z,4.80
2022-08-25T09:04:30.362Z,4.78
2022-08-25T09:06:59.598Z,4.80
2022-08-25T09:09:35.644Z,4.28
2022-08-25T09:12:20.484Z,4.90
2022-08-25T09:14:58.790Z,4.30
2022-08-25T09:17:54.743Z,4.57
2022-08-25T09:20:52.139Z,4.90
2022-08-25T09:23:32.440Z,4.88
2022-08-25T09:26:40.857Z,4.95
2022-08-25T09:29:16.696Z,4.93
2022-08-25T09:31:44.794Z,3.80
2022-08-25T09:34:18.349Z,4.03
2022-08-25T09:36:48.531Z,4.85
2022-08-25T09:39:15.564Z,4.70
2022-08-25T09:41:51.499Z,4.55
2022-08-25T09:44:31.134Z,5.30
2022-08-25T09:47:28.010Z,5.30
2022-08-25T09:50:04.396Z,5.60
2022-08-25T09:52:33.724Z,4.05
2022-08-25T09:55:25.819Z,4.43
2022-08-25T09:57:57.494Z,3.70
2022-08-25T10:00:33.430Z,4.93
2022-08-25T10:03:18.342Z,4.60
2022-08-25T10:05:58.754Z,5.13
2022-08-25T10:08:40.454Z,3.60
2022-08-25T10:11:13.087Z,4.30
2022-08-25T10:13:48.805Z,4.63
2022-08-25T10:16:36.481Z,4.15
2022-08-25T10:19:21.802Z,4.13
2022-08-25T10:22:20.647Z,4.00
2022-08-25T10:24:48.959Z,4.22
2022-08-25T10:27:36.027Z,4.25
2022-08-25T10:30:11.059Z,4.05
2022-08-25T10:33:02.150Z,3.88
2022-08-25T10:35:50.827Z,4.05
2022-08-25T10:38:39.785Z,3.93
2022-08-25T10:41:19.738Z,4.13
2022-08-25T10:44:49.591Z,3.95
2022-08-25T10:47:44.580Z,3.83
2022-08-25T10:50:34.900Z,3.65
2022-08-25T10:53:10.101Z,4.10
2022-08-25T10:55:49.859Z,3.70
2022-08-25T10:58:37.033Z,4.33
2022-08-25T11:01:44.158Z,3.97
2022-08-25T11:04:31.674Z,4.03
2022-08-25T11:07:05.130Z,4.03
2022-08-25T11:09:39.268Z,4.13
2022-08-25T11:12:16.333Z,3.53
2022-08-25T11:14:51.899Z,4.25
2022-08-25T11:17:40.092Z,3.63
2022-08-25T11:20:19.873Z,3.60
2022-08-25T11:23:17.907Z,4.07
2022-08-25T11:25:50.785Z,4.18
2022-08-25T11:28:25.091Z,3.75
2022-08-25T11:30:56.061Z,3.80
2022-08-25T11:33:29.989Z,3.38
2022-08-25T11:43:47.070Z,3.67
2022-08-25T11:46:57.508Z,3.35
2022-08-25T11:50:30.319Z,3.30
2022-08-25T11:53:33.775Z,3.45
2022-08-25T11:57:12.706Z,3.10
2022-08-25T12:00:04.642Z,3.85
2022-08-25T12:03:14.860Z,3.70
2022-08-25T12:06:16.730Z,3.58
2022-08-25T12:12:41.934Z,3.92
2022-08-25T12:15:23.916Z,3.30
2022-08-25T12:18:36.155Z,3.25
2022-08-25T12:21:09.311Z,3.22
2022-08-25T12:23:44.717Z,3.73
2022-08-25T12:26:30.544Z,3.37
2022-08-25T12:29:41.486Z,3.20
2022-08-25T12:32:49.685Z,3.83
2022-08-25T12:35:37.463Z,3.40
2022-08-25T12:38:13.731Z,3.53
2022-08-25T12:40:43.871Z,4.07
2022-08-25T12:43:38.836Z,4.03
2022-08-25T12:46:25.764Z,3.93
2022-08-25T12:49:00.456Z,3.33
2022-08-25T12:51:40.494Z,4.13
2022-08-25T12:54:19.034Z,4.38
2022-08-25T12:56:59.344Z,3.70
2022-08-25T12:59:37.450Z,4.22
2022-08-25T13:02:39.009Z,3.58
2022-08-25T13:05:37.529Z,3.90
2022-08-25T13:08:33.539Z,3.10
2022-08-25T13:11:28.925Z,2.95
2022-08-25T13:14:17.896Z,4.13
2022-08-25T13:16:56.171Z,3.58
2022-08-25T13:19:25.575Z,3.78
2022-08-25T13:21:54.748Z,3.92
2022-08-25T13:24:26.170Z,3.83
2022-08-25T13:26:56.342Z,3.60
2022-08-25T13:29:36.859Z,3.88
2022-08-25T13:32:09.254Z,4.35
2022-08-25T13:34:42.516Z,3.95
2022-08-25T13:37:31.272Z,3.83
2022-08-25T13:40:29.487Z,4.00
2022-08-25T13:43:06.804Z,3.93
2022-08-25T13:45:41.151Z,3.10
2022-08-25T13:48:23.036Z,3.38
2022-08-25T13:51:05.789Z,3.60
2022-08-25T13:53:33.208Z,3.22
2022-08-25T13:56:02.079Z,4.15
2022-08-25T13:58:45.043Z,3.17
2022-08-25T14:01:22.805Z,3.37
2022-08-25T14:04:31.853Z,3.70
2022-08-25T14:07:19.421Z,3.10
2022-08-25T14:09:51.750Z,3.60
2022-08-25T14:12:40.693Z,3.30
2022-08-25T14:15:16.993Z,3.03
2022-08-25T14:18:01.809Z,3.60
2022-08-25T14:20:31.332Z,3.70
2022-08-25T14:23:12.894Z,3.40
2022-08-25T14:25:43.201Z,4.20
2022-08-25T14:28:14.031Z,4.05
2022-08-25T14:30:46.452Z,3.97
2022-08-25T14:33:15.272Z,3.90
2022-08-25T14:35:46.266Z,4.10
2022-08-25T14:38:14.964Z,3.40
2022-08-25T14:40:42.149Z,4.22
2022-08-25T14:43:09.704Z,3.42
2022-08-25T14:45:41.454Z,3.63
2022-08-25T14:48:13.041Z,3.92
2022-08-25T14:50:42.320Z,4.10
2022-08-25T14:53:11.340Z,3.78
2022-08-25T14:55:38.897Z,3.40
2022-08-25T14:58:07.413Z,3.60
2022-08-25T15:03:21.381Z,3.88
2022-08-25T15:05:48.357Z,3.70
2022-08-25T15:08:35.924Z,3.40
2022-08-25T15:11:08.931Z,3.30
2022-08-25T15:13:36.764Z,4.45
2022-08-25T15:16:04.493Z,3.58
2022-08-25T15:18:31.383Z,4.00
2022-08-25T15:20:58.321Z,4.00
2022-08-25T15:23:25.341Z,3.70
2022-08-25T15:25:55.670Z,4.10
2022-08-25T15:28:22.977Z,3.33
2022-08-25T15:30:50.814Z,3.28
2022-08-25T15:33:19.604Z,4.50
2022-08-25T15:35:47.833Z,4.10
2022-08-25T15:38:16.931Z,4.57
2022-08-25T15:40:43.797Z,3.22
2022-08-25T15:43:11.799Z,3.30
2022-08-25T15:45:42.235Z,3.83
2022-08-25T15:48:16.638Z,3.85
2022-08-25T15:50:43.748Z,3.90
2022-08-25T15:53:13.703Z,4.53
2022-08-25T15:55:41.668Z,4.00
2022-08-25T15:58:08.743Z,4.75
2022-08-25T16:00:38.837Z,4.40
2022-08-25T16:03:07.908Z,3.83
2022-08-25T16:05:48.251Z,4.05
2022-08-25T16:08:19.657Z,4.13
2022-08-25T16:10:47.055Z,4.10
2022-08-25T16:13:16.941Z,4.30
2022-08-25T16:15:54.064Z,3.85
2022-08-25T16:18:23.225Z,4.95
2022-08-25T16:20:52.261Z,4.38
2022-08-25T16:23:19.719Z,4.85
2022-08-25T16:25:47.818Z,4.75
2022-08-25T16:28:15.983Z,5.15
2022-08-25T16:30:52.951Z,6.03
2022-08-25T16:33:20.927Z,6.60
2022-08-25T16:35:47.786Z,7.13
2022-08-25T16:38:18.545Z,9.75
2022-08-25T16:40:46.225Z,13.90
2022-08-25T16:43:13.201Z,11.02
2022-08-25T16:45:40.568Z,10.97
2022-08-25T16:48:07.657Z,15.67
2022-08-25T16:50:35.324Z,16.20
2022-08-25T16:53:24.396Z,17.65
2022-08-25T16:56:08.599Z,18.15
2022-08-25T16:58:38.688Z,20.25
2022-08-25T17:01:12.829Z,20.23
2022-08-25T17:03:43.993Z,23.80
2022-08-25T17:06:11.332Z,21.38
2022-08-25T17:08:38.824Z,17.65
2022-08-25T17:11:14.002Z,20.70
2022-08-25T17:13:44.640Z,18.13
2022-08-25T17:16:14.636Z,22.45
2022-08-25T17:18:42.665Z,22.63
2022-08-25T17:21:19.547Z,23.57
2022-08-25T17:23:55.022Z,19.65
2022-08-25T17:26:28.085Z,22.27
2022-08-25T17:28:57.632Z,22.83
2022-08-25T17:31:33.726Z,23.35
2022-08-25T17:34:01.580Z,23.53
2022-08-25T17:36:28.537Z,21.80
2022-08-25T17:38:56.757Z,22.77
2022-08-25T17:41:24.057Z,25.45
2022-08-25T17:43:51.034Z,25.45
2022-08-25T17:46:18.255Z,28.17
2022-08-25T17:48:45.312Z,24.57
2022-08-25T17:51:16.350Z,25.10
2022-08-25T17:53:43.756Z,27.17
2022-08-25T17:56:17.976Z,26.90
2022-08-25T17:58:45.661Z,25.23
2022-08-25T18:01:23.931Z,26.17
2022-08-25T18:03:51.625Z,24.77
2022-08-25T18:06:20.572Z,24.75
2022-08-25T18:08:50.288Z,25.75
2022-08-25T18:11:20.306Z,27.13
2022-08-25T18:13:47.646Z,29.10
2022-08-25T18:16:17.537Z,32.43
2022-08-25T18:18:44.759Z,31.00
2022-08-25T18:21:13.981Z,32.95
2022-08-25T18:23:42.581Z,34.50
2022-08-25T18:26:13.000Z,32.83
2022-08-25T18:28:43.692Z,36.93
2022-08-25T18:31:13.193Z,35.22
2022-08-25T18:33:44.473Z,37.25
2022-08-25T18:36:13.201Z,36.83
2022-08-25T18:39:00.397Z,35.15
2022-08-25T18:41:33.210Z,38.10
2022-08-25T18:44:00.223Z,37.40
2022-08-25T18:46:27.380Z,35.47
2022-08-25T18:48:55.566Z,36.35
2022-08-25T18:51:23.968Z,38.85
2022-08-25T18:53:54.655Z,37.67
2022-08-25T18:56:29.885Z,37.95
2022-08-25T18:58:57.687Z,36.78
2022-08-25T19:01:25.262Z,36.45
2022-08-25T19:03:52.316Z,37.30
2022-08-25T19:06:44.963Z,36.40
2022-08-25T19:09:12.314Z,36.05
2022-08-25T19:11:39.297Z,39.88
2022-08-25T19:14:12.286Z,36.15
2022-08-25T19:16:43.608Z,36.75
2022-08-25T19:19:13.219Z,34.47
2022-08-25T19:21:43.937Z,35.03
2022-08-25T19:24:13.242Z,35.00
2022-08-25T19:26:42.052Z,34.75
2022-08-25T19:29:12.939Z,36.22
2022-08-25T19:31:41.959Z,34.97
2022-08-25T19:34:12.751Z,33.80
2022-08-25T19:36:43.936Z,33.38
2022-08-25T19:39:12.623Z,30.23
2022-08-25T19:41:40.371Z,31.35
2022-08-25T19:44:08.111Z,31.23
2022-08-25T19:46:40.195Z,29.98
2022-08-25T19:49:15.028Z,31.23
2022-08-25T19:51:51.086Z,29.40
2022-08-25T19:54:23.529Z,29.15
2022-08-25T19:56:54.406Z,29.80
2022-08-25T19:59:40.758Z,26.08
2022-08-25T20:02:15.329Z,27.48
2022-08-25T20:04:49.803Z,26.08
2022-08-25T20:07:23.741Z,24.45
2022-08-25T20:09:52.451Z,24.13
2022-08-25T20:12:21.054Z,23.77
2022-08-25T20:14:49.956Z,20.52
2022-08-25T20:17:23.696Z,19.20
2022-08-25T20:19:53.692Z,18.10
2022-08-25T20:22:25.392Z,14.17
2022-08-25T20:24:58.599Z,17.00
2022-08-25T20:27:33.115Z,17.83
2022-08-25T20:30:02.638Z,17.33
2022-08-25T20:32:31.972Z,17.67
2022-08-25T20:34:59.253Z,17.63
2022-08-25T20:37:26.530Z,16.90
2022-08-25T20:39:53.547Z,17.55
2022-08-25T20:42:20.857Z,19.00
2022-08-25T20:44:47.810Z,20.42
2022-08-25T20:47:18.193Z,18.97
2022-08-25T20:49:46.519Z,19.52
2022-08-25T20:52:13.833Z,18.52
2022-08-25T20:54:46.975Z,16.33
2022-08-25T20:57:17.660Z,17.92
2022-08-25T20:59:45.042Z,16.47
2022-08-25T21:05:21.527Z,17.52
2022-08-25T21:07:48.944Z,15.80
2022-08-25T21:10:16.052Z,17.05
2022-08-25T21:12:45.219Z,15.17
2022-08-25T21:15:13.733Z,15.32
2022-08-25T21:17:56.573Z,15.73
2022-08-25T21:20:25.086Z,16.48
2022-08-25T21:22:53.406Z,13.85
2022-08-25T21:25:20.752Z,13.70
2022-08-25T21:27:47.925Z,12.77
2022-08-25T21:30:15.277Z,12.45
2022-08-25T21:32:52.886Z,10.90
2022-08-25T21:35:23.699Z,10.15
2022-08-25T21:37:53.325Z,9.70
2022-08-25T21:40:24.295Z,9.27
2022-08-25T21:43:00.944Z,10.15
2022-08-25T21:45:27.948Z,9.52
2022-08-25T21:48:03.074Z,10.02
2022-08-25T21:50:30.521Z,8.87
2022-08-25T21:52:59.285Z,7.50
2022-08-25T21:55:26.432Z,7.82
2022-08-25T21:57:54.795Z,6.40
2022-08-25T22:00:23.879Z,6.13
2022-08-25T22:02:51.200Z,4.53
2022-08-25T22:05:18.249Z,4.60
2022-08-25T22:07:45.890Z,3.38
2022-08-25T22:10:17.706Z,3.83
2022-08-25T22:12:46.876Z,3.60
2022-08-25T22:15:15.550Z,3.40
2022-08-25T22:17:42.398Z,3.08
2022-08-25T22:20:10.596Z,3.10
2022-08-25T22:22:40.477Z,2.95
2022-08-25T22:25:07.693Z,3.58
2022-08-25T22:27:35.272Z,3.10
2022-08-25T22:30:02.218Z,3.15
2022-08-25T22:32:29.710Z,3.20
2022-08-25T22:34:56.515Z,3.15
2022-08-25T22:37:23.411Z,3.60
2022-08-25T22:39:50.419Z,2.50
2022-08-25T22:42:18.406Z,3.40
2022-08-25T22:44:47.519Z,3.70
2022-08-25T22:47:14.468Z,3.00
2022-08-25T22:49:41.829Z,3.78
2022-08-25T22:52:12.734Z,3.10
2022-08-25T22:54:41.236Z,3.47
2022-08-25T22:57:07.989Z,3.70
2022-08-25T22:59:34.831Z,3.47
